sensor_id;sensor_type;location;lat;lon;timestamp;temperature;humidity
30399;DHT22;17195;50.838;7.214;2023-12-20T00:02:16;7.70;99.90
30399;DHT22;17195;50.838;7.214;2023-12-20T00:04:42;7.70;99.90
30399;DHT22;17195;50.838;7.214;2023-12-20T00:07:07;7.70;99.90
30399;DHT22;17195;50.838;7.214;2023-12-20T00:09:33;7.70;99.90
30399;DHT22;17195;50.838;7.214;2023-12-20T00:11:59;7.70;99.90
30399;DHT22;17195;50.838;7.214;2023-12-20T00:14:24;7.70;99.90
30399;DHT22;17195;50.838;7.214;2023-12-20T00:16:50;7.70;99.90
30399;DHT22;17195;50.838;7.214;2023-12-20T00:19:15;7.70;99.90
30399;DHT22;17195;50.838;7.214;2023-12-20T00:21:41;7.70;99.90
30399;DHT22;17195;50.838;7.214;2023-12-20T00:24:07;7.70;99.90
30399;DHT22;17195;50.838;7.214;2023-12-20T00:26:33;7.70;99.90
30399;DHT22;17195;50.838;7.214;2023-12-20T00:28:58;7.70;99.90
30399;DHT22;17195;50.838;7.214;2023-12-20T00:31:24;7.70;99.90
30399;DHT22;17195;50.838;7.214;2023-12-20T00:33:49;7.70;99.90
30399;DHT22;17195;50.838;7.214;2023-12-20T00:36:15;7.70;99.90
30399;DHT22;17195;50.838;7.214;2023-12-20T00:38:40;7.70;99.90
30399;DHT22;17195;50.838;7.214;2023-12-20T00:41:06;7.70;99.90
30399;DHT22;17195;50.838;7.214;2023-12-20T00:43:31;7.80;99.90
30399;DHT22;17195;50.838;7.214;2023-12-20T00:45:57;7.80;99.90
30399;DHT22;17195;50.838;7.214;2023-12-20T00:48:23;7.70;99.90
30399;DHT22;17195;50.838;7.214;2023-12-20T00:50:48;7.80;99.90
30399;DHT22;17195;50.838;7.214;2023-12-20T00:53:14;7.80;99.90
30399;DHT22;17195;50.838;7.214;2023-12-20T00:55:39;7.80;99.90
30399;DHT22;17195;50.838;7.214;2023-12-20T00:58:05;7.80;99.90
30399;DHT22;17195;50.838;7.214;2023-12-20T01:00:31;7.90;99.90
30399;DHT22;17195;50.838;7.214;2023-12-20T01:02:57;7.80;99.90
30399;DHT22;17195;50.838;7.214;2023-12-20T01:05:22;7.80;99.90
30399;DHT22;17195;50.838;7.214;2023-12-20T01:07:48;7.80;99.90
30399;DHT22;17195;50.838;7.214;2023-12-20T01:10:14;7.70;99.90
30399;DHT22;17195;50.838;7.214;2023-12-20T01:12:40;7.70;99.90
30399;DHT22;17195;50.838;7.214;2023-12-20T01:15:06;7.70;99.90
30399;DHT22;17195;50.838;7.214;2023-12-20T01:17:31;7.70;99.90
30399;DHT22;17195;50.838;7.214;2023-12-20T01:19:57;7.60;99.90
30399;DHT22;17195;50.838;7.214;2023-12-20T01:22:23;7.60;99.90
30399;DHT22;17195;50.838;7.214;2023-12-20T01:24:49;7.60;99.90
30399;DHT22;17195;50.838;7.214;2023-12-20T01:27:14;7.50;99.90
30399;DHT22;17195;50.838;7.214;2023-12-20T01:29:40;7.50;99.90
30399;DHT22;17195;50.838;7.214;2023-12-20T01:32:06;7.50;99.90
30399;DHT22;17195;50.838;7.214;2023-12-20T01:34:31;7.50;99.90
30399;DHT22;17195;50.838;7.214;2023-12-20T01:36:57;7.50;99.90
30399;DHT22;17195;50.838;7.214;2023-12-20T01:39:23;7.50;99.90
30399;DHT22;17195;50.838;7.214;2023-12-20T01:41:49;7.50;99.90
30399;DHT22;17195;50.838;7.214;2023-12-20T01:44:14;7.40;99.90
30399;DHT22;17195;50.838;7.214;2023-12-20T01:46:40;7.30;99.90
30399;DHT22;17195;50.838;7.214;2023-12-20T01:49:06;7.20;99.90
30399;DHT22;17195;50.838;7.214;2023-12-20T01:51:32;7.10;99.90
30399;DHT22;17195;50.838;7.214;2023-12-20T01:53:59;7.20;99.90
30399;DHT22;17195;50.838;7.214;2023-12-20T01:56:26;7.30;99.90
30399;DHT22;17195;50.838;7.214;2023-12-20T01:58:54;7.30;99.90
30399;DHT22;17195;50.838;7.214;2023-12-20T02:01:20;7.40;99.90
30399;DHT22;17195;50.838;7.214;2023-12-20T02:03:46;7.40;99.90
30399;DHT22;17195;50.838;7.214;2023-12-20T02:06:11;7.40;99.90
30399;DHT22;17195;50.838;7.214;2023-12-20T02:08:37;7.40;99.90
30399;DHT22;17195;50.838;7.214;2023-12-20T02:11:03;7.40;99.90
30399;DHT22;17195;50.838;7.214;2023-12-20T02:13:28;7.30;99.90
30399;DHT22;17195;50.838;7.214;2023-12-20T02:15:57;7.30;99.90
30399;DHT22;17195;50.838;7.214;2023-12-20T02:18:23;7.30;99.90
30399;DHT22;17195;50.838;7.214;2023-12-20T02:20:49;7.30;99.90
30399;DHT22;17195;50.838;7.214;2023-12-20T02:23:14;7.30;99.90
30399;DHT22;17195;50.838;7.214;2023-12-20T02:25:40;7.30;99.90
30399;DHT22;17195;50.838;7.214;2023-12-20T02:28:06;7.10;99.90
30399;DHT22;17195;50.838;7.214;2023-12-20T02:30:32;7.00;99.90
30399;DHT22;17195;50.838;7.214;2023-12-20T02:32:59;6.90;99.90
30399;DHT22;17195;50.838;7.214;2023-12-20T02:35:26;6.80;99.90
30399;DHT22;17195;50.838;7.214;2023-12-20T02:37:51;6.80;99.90
30399;DHT22;17195;50.838;7.214;2023-12-20T02:40:17;6.80;99.90
30399;DHT22;17195;50.838;7.214;2023-12-20T02:42:43;6.70;99.90
30399;DHT22;17195;50.838;7.214;2023-12-20T02:45:08;6.60;99.90
30399;DHT22;17195;50.838;7.214;2023-12-20T02:47:34;6.60;99.90
30399;DHT22;17195;50.838;7.214;2023-12-20T02:50:00;6.50;99.90
30399;DHT22;17195;50.838;7.214;2023-12-20T02:52:27;6.50;99.90
30399;DHT22;17195;50.838;7.214;2023-12-20T02:54:52;6.40;99.90
30399;DHT22;17195;50.838;7.214;2023-12-20T02:57:18;6.30;99.90
30399;DHT22;17195;50.838;7.214;2023-12-20T02:59:43;6.30;99.90
30399;DHT22;17195;50.838;7.214;2023-12-20T03:02:09;6.30;99.90
30399;DHT22;17195;50.838;7.214;2023-12-20T03:04:34;6.30;99.90
30399;DHT22;17195;50.838;7.214;2023-12-20T03:07:00;6.20;99.90
30399;DHT22;17195;50.838;7.214;2023-12-20T03:09:25;6.20;99.90
30399;DHT22;17195;50.838;7.214;2023-12-20T03:11:51;6.20;99.90
30399;DHT22;17195;50.838;7.214;2023-12-20T03:14:17;6.20;99.90
30399;DHT22;17195;50.838;7.214;2023-12-20T03:16:47;6.20;99.90
30399;DHT22;17195;50.838;7.214;2023-12-20T03:19:12;6.30;99.90
30399;DHT22;17195;50.838;7.214;2023-12-20T03:21:38;6.40;99.90
30399;DHT22;17195;50.838;7.214;2023-12-20T03:24:04;6.40;99.90
30399;DHT22;17195;50.838;7.214;2023-12-20T03:26:30;6.40;99.90
30399;DHT22;17195;50.838;7.214;2023-12-20T03:28:55;6.40;99.90
30399;DHT22;17195;50.838;7.214;2023-12-20T03:31:21;6.40;99.90
30399;DHT22;17195;50.838;7.214;2023-12-20T03:33:47;6.50;99.90
30399;DHT22;17195;50.838;7.214;2023-12-20T03:36:12;6.50;99.90
30399;DHT22;17195;50.838;7.214;2023-12-20T03:38:38;6.50;99.90
30399;DHT22;17195;50.838;7.214;2023-12-20T03:41:04;6.50;99.90
30399;DHT22;17195;50.838;7.214;2023-12-20T03:43:30;6.50;99.90
30399;DHT22;17195;50.838;7.214;2023-12-20T03:45:55;6.60;99.90
30399;DHT22;17195;50.838;7.214;2023-12-20T03:48:21;6.60;99.90
30399;DHT22;17195;50.838;7.214;2023-12-20T03:50:46;6.60;99.90
30399;DHT22;17195;50.838;7.214;2023-12-20T03:53:12;6.60;99.90
30399;DHT22;17195;50.838;7.214;2023-12-20T03:55:38;6.60;99.90
30399;DHT22;17195;50.838;7.214;2023-12-20T03:58:03;6.60;99.90
30399;DHT22;17195;50.838;7.214;2023-12-20T04:00:29;6.60;99.90
30399;DHT22;17195;50.838;7.214;2023-12-20T04:02:54;6.60;99.90
30399;DHT22;17195;50.838;7.214;2023-12-20T04:05:20;6.70;99.90
30399;DHT22;17195;50.838;7.214;2023-12-20T04:07:45;6.60;99.90
30399;DHT22;17195;50.838;7.214;2023-12-20T04:10:11;6.60;99.90
30399;DHT22;17195;50.838;7.214;2023-12-20T04:12:36;6.60;99.90
30399;DHT22;17195;50.838;7.214;2023-12-20T04:15:02;6.60;99.90
30399;DHT22;17195;50.838;7.214;2023-12-20T04:17:34;6.60;99.90
30399;DHT22;17195;50.838;7.214;2023-12-20T04:20:00;6.60;99.90
30399;DHT22;17195;50.838;7.214;2023-12-20T04:22:25;6.60;99.90
30399;DHT22;17195;50.838;7.214;2023-12-20T04:24:51;6.60;99.90
30399;DHT22;17195;50.838;7.214;2023-12-20T04:27:16;6.60;99.90
30399;DHT22;17195;50.838;7.214;2023-12-20T04:29:42;6.60;99.90
30399;DHT22;17195;50.838;7.214;2023-12-20T04:32:08;6.60;99.90
30399;DHT22;17195;50.838;7.214;2023-12-20T04:34:33;6.50;99.90
30399;DHT22;17195;50.838;7.214;2023-12-20T04:36:59;6.50;99.90
30399;DHT22;17195;50.838;7.214;2023-12-20T04:39:24;6.60;99.90
30399;DHT22;17195;50.838;7.214;2023-12-20T04:41:50;6.60;99.90
30399;DHT22;17195;50.838;7.214;2023-12-20T04:44:15;6.60;99.90
30399;DHT22;17195;50.838;7.214;2023-12-20T04:46:41;6.70;99.90
30399;DHT22;17195;50.838;7.214;2023-12-20T04:49:07;6.60;99.90
30399;DHT22;17195;50.838;7.214;2023-12-20T04:51:35;6.70;99.90
30399;DHT22;17195;50.838;7.214;2023-12-20T04:54:01;6.70;99.90
30399;DHT22;17195;50.838;7.214;2023-12-20T04:56:27;6.70;99.90
30399;DHT22;17195;50.838;7.214;2023-12-20T04:58:53;6.70;99.90
30399;DHT22;17195;50.838;7.214;2023-12-20T05:01:18;6.70;99.90
30399;DHT22;17195;50.838;7.214;2023-12-20T05:03:44;6.60;99.90
30399;DHT22;17195;50.838;7.214;2023-12-20T05:06:10;6.60;99.90
30399;DHT22;17195;50.838;7.214;2023-12-20T05:08:36;6.70;99.90
30399;DHT22;17195;50.838;7.214;2023-12-20T05:11:01;6.70;99.90
30399;DHT22;17195;50.838;7.214;2023-12-20T05:13:27;6.70;99.90
30399;DHT22;17195;50.838;7.214;2023-12-20T05:15:52;6.70;99.90
30399;DHT22;17195;50.838;7.214;2023-12-20T05:18:18;6.70;99.90
30399;DHT22;17195;50.838;7.214;2023-12-20T05:20:44;6.70;99.90
30399;DHT22;17195;50.838;7.214;2023-12-20T05:23:09;6.70;99.90
30399;DHT22;17195;50.838;7.214;2023-12-20T05:25:35;6.60;99.90
30399;DHT22;17195;50.838;7.214;2023-12-20T05:28:00;6.60;99.90
30399;DHT22;17195;50.838;7.214;2023-12-20T05:30:26;6.60;99.90
30399;DHT22;17195;50.838;7.214;2023-12-20T05:32:52;6.50;99.90
30399;DHT22;17195;50.838;7.214;2023-12-20T05:35:17;6.50;99.90
30399;DHT22;17195;50.838;7.214;2023-12-20T05:37:43;6.50;99.90
30399;DHT22;17195;50.838;7.214;2023-12-20T05:40:09;6.50;99.90
30399;DHT22;17195;50.838;7.214;2023-12-20T05:42:37;6.60;99.90
30399;DHT22;17195;50.838;7.214;2023-12-20T05:45:04;6.60;99.90
30399;DHT22;17195;50.838;7.214;2023-12-20T05:47:30;6.60;99.90
30399;DHT22;17195;50.838;7.214;2023-12-20T05:49:55;6.70;99.90
30399;DHT22;17195;50.838;7.214;2023-12-20T05:52:21;6.60;99.90
30399;DHT22;17195;50.838;7.214;2023-12-20T05:54:47;6.60;99.90
30399;DHT22;17195;50.838;7.214;2023-12-20T05:57:13;6.60;99.90
30399;DHT22;17195;50.838;7.214;2023-12-20T05:59:38;6.60;99.90
30399;DHT22;17195;50.838;7.214;2023-12-20T06:02:04;6.60;99.90
30399;DHT22;17195;50.838;7.214;2023-12-20T06:04:30;6.60;99.90
30399;DHT22;17195;50.838;7.214;2023-12-20T06:06:55;6.60;99.90
30399;DHT22;17195;50.838;7.214;2023-12-20T06:09:21;6.60;99.90
30399;DHT22;17195;50.838;7.214;2023-12-20T06:11:46;6.60;99.90
30399;DHT22;17195;50.838;7.214;2023-12-20T06:14:12;6.60;99.90
30399;DHT22;17195;50.838;7.214;2023-12-20T06:16:38;6.60;99.90
30399;DHT22;17195;50.838;7.214;2023-12-20T06:19:03;6.60;99.90
30399;DHT22;17195;50.838;7.214;2023-12-20T06:21:29;6.60;99.90
30399;DHT22;17195;50.838;7.214;2023-12-20T06:23:54;6.60;99.90
30399;DHT22;17195;50.838;7.214;2023-12-20T06:26:20;6.60;99.90
30399;DHT22;17195;50.838;7.214;2023-12-20T06:28:45;6.60;99.90
30399;DHT22;17195;50.838;7.214;2023-12-20T06:31:11;6.60;99.90
30399;DHT22;17195;50.838;7.214;2023-12-20T06:33:37;6.50;99.90
30399;DHT22;17195;50.838;7.214;2023-12-20T06:36:06;6.60;99.90
30399;DHT22;17195;50.838;7.214;2023-12-20T06:38:31;6.60;99.90
30399;DHT22;17195;50.838;7.214;2023-12-20T06:40:57;6.50;99.90
30399;DHT22;17195;50.838;7.214;2023-12-20T06:43:24;6.60;99.90
30399;DHT22;17195;50.838;7.214;2023-12-20T06:45:49;6.60;99.90
30399;DHT22;17195;50.838;7.214;2023-12-20T06:48:15;6.60;99.90
30399;DHT22;17195;50.838;7.214;2023-12-20T06:50:40;6.60;99.90
30399;DHT22;17195;50.838;7.214;2023-12-20T06:53:06;6.60;99.90
30399;DHT22;17195;50.838;7.214;2023-12-20T06:55:35;6.60;99.90
30399;DHT22;17195;50.838;7.214;2023-12-20T06:58:03;6.70;99.90
30399;DHT22;17195;50.838;7.214;2023-12-20T07:00:28;6.70;99.90
30399;DHT22;17195;50.838;7.214;2023-12-20T07:02:54;6.70;99.90
30399;DHT22;17195;50.838;7.214;2023-12-20T07:05:20;6.70;99.90
30399;DHT22;17195;50.838;7.214;2023-12-20T07:07:46;6.70;99.90
30399;DHT22;17195;50.838;7.214;2023-12-20T07:10:13;6.70;99.90
30399;DHT22;17195;50.838;7.214;2023-12-20T07:12:38;6.70;99.90
30399;DHT22;17195;50.838;7.214;2023-12-20T07:15:04;6.70;99.90
30399;DHT22;17195;50.838;7.214;2023-12-20T07:17:31;6.70;99.90
30399;DHT22;17195;50.838;7.214;2023-12-20T07:19:58;6.70;99.90
30399;DHT22;17195;50.838;7.214;2023-12-20T07:22:24;6.70;99.90
30399;DHT22;17195;50.838;7.214;2023-12-20T07:24:49;6.70;99.90
30399;DHT22;17195;50.838;7.214;2023-12-20T07:27:17;6.80;99.90
30399;DHT22;17195;50.838;7.214;2023-12-20T07:29:43;6.80;99.90
30399;DHT22;17195;50.838;7.214;2023-12-20T07:32:08;6.80;99.90
30399;DHT22;17195;50.838;7.214;2023-12-20T07:34:34;6.80;99.90
30399;DHT22;17195;50.838;7.214;2023-12-20T07:36:59;6.80;99.90
30399;DHT22;17195;50.838;7.214;2023-12-20T07:39:25;6.80;99.90
30399;DHT22;17195;50.838;7.214;2023-12-20T07:41:50;6.80;99.90
30399;DHT22;17195;50.838;7.214;2023-12-20T07:44:16;6.90;99.90
30399;DHT22;17195;50.838;7.214;2023-12-20T07:46:42;6.80;99.90
30399;DHT22;17195;50.838;7.214;2023-12-20T07:49:07;6.80;99.90
30399;DHT22;17195;50.838;7.214;2023-12-20T07:51:34;6.90;99.90
30399;DHT22;17195;50.838;7.214;2023-12-20T07:53:59;6.90;99.90
30399;DHT22;17195;50.838;7.214;2023-12-20T07:56:25;6.90;99.90
30399;DHT22;17195;50.838;7.214;2023-12-20T07:58:50;6.90;99.90
30399;DHT22;17195;50.838;7.214;2023-12-20T08:01:16;6.90;99.90
30399;DHT22;17195;50.838;7.214;2023-12-20T08:03:43;6.90;99.90
30399;DHT22;17195;50.838;7.214;2023-12-20T08:06:09;6.90;99.90
30399;DHT22;17195;50.838;7.214;2023-12-20T08:08:34;6.90;99.90
30399;DHT22;17195;50.838;7.214;2023-12-20T08:11:00;7.00;99.90
30399;DHT22;17195;50.838;7.214;2023-12-20T08:13:26;7.00;99.90
30399;DHT22;17195;50.838;7.214;2023-12-20T08:15:53;7.00;99.90
30399;DHT22;17195;50.838;7.214;2023-12-20T08:18:18;7.00;99.90
30399;DHT22;17195;50.838;7.214;2023-12-20T08:20:44;7.00;99.90
30399;DHT22;17195;50.838;7.214;2023-12-20T08:23:10;7.00;99.90
30399;DHT22;17195;50.838;7.214;2023-12-20T08:25:35;7.00;99.90
30399;DHT22;17195;50.838;7.214;2023-12-20T08:28:03;6.90;99.90
30399;DHT22;17195;50.838;7.214;2023-12-20T08:30:29;7.00;99.90
30399;DHT22;17195;50.838;7.214;2023-12-20T08:32:56;7.00;99.90
30399;DHT22;17195;50.838;7.214;2023-12-20T08:35:22;7.10;99.90
30399;DHT22;17195;50.838;7.214;2023-12-20T08:37:47;7.00;99.90
30399;DHT22;17195;50.838;7.214;2023-12-20T08:40:13;7.00;99.90
30399;DHT22;17195;50.838;7.214;2023-12-20T08:42:39;7.10;99.90
30399;DHT22;17195;50.838;7.214;2023-12-20T08:45:05;7.00;99.90
30399;DHT22;17195;50.838;7.214;2023-12-20T08:47:30;7.10;99.90
30399;DHT22;17195;50.838;7.214;2023-12-20T08:49:56;7.10;99.90
30399;DHT22;17195;50.838;7.214;2023-12-20T08:52:23;7.10;99.90
30399;DHT22;17195;50.838;7.214;2023-12-20T08:54:50;7.20;99.90
30399;DHT22;17195;50.838;7.214;2023-12-20T08:57:19;7.10;99.90
30399;DHT22;17195;50.838;7.214;2023-12-20T08:59:46;7.20;99.90
30399;DHT22;17195;50.838;7.214;2023-12-20T09:02:11;7.20;99.90
30399;DHT22;17195;50.838;7.214;2023-12-20T09:04:37;7.20;99.90
30399;DHT22;17195;50.838;7.214;2023-12-20T09:07:02;7.20;99.90
30399;DHT22;17195;50.838;7.214;2023-12-20T09:09:28;7.20;99.90
30399;DHT22;17195;50.838;7.214;2023-12-20T09:11:53;7.20;99.90
30399;DHT22;17195;50.838;7.214;2023-12-20T09:14:19;7.30;99.90
30399;DHT22;17195;50.838;7.214;2023-12-20T09:16:45;7.30;99.90
30399;DHT22;17195;50.838;7.214;2023-12-20T09:19:10;7.30;99.90
30399;DHT22;17195;50.838;7.214;2023-12-20T09:21:36;7.30;99.90
30399;DHT22;17195;50.838;7.214;2023-12-20T09:24:01;7.20;99.90
30399;DHT22;17195;50.838;7.214;2023-12-20T09:26:27;7.20;99.90
30399;DHT22;17195;50.838;7.214;2023-12-20T09:28:52;7.20;99.90
30399;DHT22;17195;50.838;7.214;2023-12-20T09:31:18;7.30;99.90
30399;DHT22;17195;50.838;7.214;2023-12-20T09:33:43;7.20;99.90
30399;DHT22;17195;50.838;7.214;2023-12-20T09:36:09;7.20;99.90
30399;DHT22;17195;50.838;7.214;2023-12-20T09:38:34;7.20;99.90
30399;DHT22;17195;50.838;7.214;2023-12-20T09:41:00;7.30;99.90
30399;DHT22;17195;50.838;7.214;2023-12-20T09:43:27;7.30;99.90
30399;DHT22;17195;50.838;7.214;2023-12-20T09:46:00;7.30;99.90
30399;DHT22;17195;50.838;7.214;2023-12-20T09:48:26;7.30;99.90
30399;DHT22;17195;50.838;7.214;2023-12-20T09:50:53;7.40;99.90
30399;DHT22;17195;50.838;7.214;2023-12-20T09:53:19;7.30;99.90
30399;DHT22;17195;50.838;7.214;2023-12-20T09:55:46;7.40;99.90
30399;DHT22;17195;50.838;7.214;2023-12-20T09:58:12;7.40;99.90
30399;DHT22;17195;50.838;7.214;2023-12-20T10:00:37;7.30;99.90
30399;DHT22;17195;50.838;7.214;2023-12-20T10:03:03;7.40;99.90
30399;DHT22;17195;50.838;7.214;2023-12-20T10:05:32;7.40;99.90
30399;DHT22;17195;50.838;7.214;2023-12-20T10:07:58;7.40;99.90
30399;DHT22;17195;50.838;7.214;2023-12-20T10:10:24;7.40;99.90
30399;DHT22;17195;50.838;7.214;2023-12-20T10:13:03;7.40;99.90
30399;DHT22;17195;50.838;7.214;2023-12-20T10:15:29;7.50;99.90
30399;DHT22;17195;50.838;7.214;2023-12-20T10:17:56;7.50;99.90
30399;DHT22;17195;50.838;7.214;2023-12-20T10:20:22;7.50;99.90
30399;DHT22;17195;50.838;7.214;2023-12-20T10:22:48;7.50;99.90
30399;DHT22;17195;50.838;7.214;2023-12-20T10:25:14;7.50;99.90
30399;DHT22;17195;50.838;7.214;2023-12-20T10:27:40;7.50;99.90
30399;DHT22;17195;50.838;7.214;2023-12-20T10:30:06;7.50;99.90
30399;DHT22;17195;50.838;7.214;2023-12-20T10:32:31;7.50;99.90
30399;DHT22;17195;50.838;7.214;2023-12-20T10:34:57;7.60;99.90
30399;DHT22;17195;50.838;7.214;2023-12-20T10:37:24;7.60;99.90
30399;DHT22;17195;50.838;7.214;2023-12-20T10:39:54;7.60;99.90
30399;DHT22;17195;50.838;7.214;2023-12-20T10:42:25;7.50;99.90
30399;DHT22;17195;50.838;7.214;2023-12-20T10:44:51;7.60;99.90
30399;DHT22;17195;50.838;7.214;2023-12-20T10:47:19;7.60;99.90
30399;DHT22;17195;50.838;7.214;2023-12-20T10:49:46;7.60;99.90
30399;DHT22;17195;50.838;7.214;2023-12-20T10:52:12;7.60;99.90
30399;DHT22;17195;50.838;7.214;2023-12-20T10:54:41;7.60;99.90
30399;DHT22;17195;50.838;7.214;2023-12-20T10:57:08;7.60;99.90
30399;DHT22;17195;50.838;7.214;2023-12-20T10:59:36;7.60;99.90
30399;DHT22;17195;50.838;7.214;2023-12-20T11:02:05;7.60;99.90
30399;DHT22;17195;50.838;7.214;2023-12-20T11:04:53;7.60;99.90
30399;DHT22;17195;50.838;7.214;2023-12-20T11:07:28;7.70;99.90
30399;DHT22;17195;50.838;7.214;2023-12-20T11:10:00;7.70;99.90
30399;DHT22;17195;50.838;7.214;2023-12-20T11:12:37;7.80;99.90
30399;DHT22;17195;50.838;7.214;2023-12-20T11:15:07;7.80;99.90
30399;DHT22;17195;50.838;7.214;2023-12-20T11:17:33;7.80;99.90
30399;DHT22;17195;50.838;7.214;2023-12-20T11:22:29;7.80;99.90
30399;DHT22;17195;50.838;7.214;2023-12-20T11:24:59;7.80;99.90
30399;DHT22;17195;50.838;7.214;2023-12-20T11:27:27;7.90;99.90
30399;DHT22;17195;50.838;7.214;2023-12-20T11:29:55;7.90;99.90
30399;DHT22;17195;50.838;7.214;2023-12-20T11:34:51;7.80;99.90
30399;DHT22;17195;50.838;7.214;2023-12-20T11:37:16;7.80;99.90
30399;DHT22;17195;50.838;7.214;2023-12-20T11:39:44;7.80;99.90
30399;DHT22;17195;50.838;7.214;2023-12-20T11:42:10;7.80;99.90
30399;DHT22;17195;50.838;7.214;2023-12-20T11:44:37;7.80;99.90
30399;DHT22;17195;50.838;7.214;2023-12-20T11:47:03;7.80;99.90
30399;DHT22;17195;50.838;7.214;2023-12-20T11:49:28;7.80;99.90
30399;DHT22;17195;50.838;7.214;2023-12-20T11:51:56;7.80;99.90
30399;DHT22;17195;50.838;7.214;2023-12-20T11:54:22;7.90;99.90
30399;DHT22;17195;50.838;7.214;2023-12-20T11:56:48;7.90;99.90
30399;DHT22;17195;50.838;7.214;2023-12-20T11:59:14;7.90;99.90
30399;DHT22;17195;50.838;7.214;2023-12-20T12:01:40;7.90;99.90
30399;DHT22;17195;50.838;7.214;2023-12-20T12:04:12;7.90;99.90
30399;DHT22;17195;50.838;7.214;2023-12-20T12:06:38;7.90;99.90
30399;DHT22;17195;50.838;7.214;2023-12-20T12:09:03;8.00;99.90
30399;DHT22;17195;50.838;7.214;2023-12-20T12:11:30;8.00;99.90
30399;DHT22;17195;50.838;7.214;2023-12-20T12:13:55;8.00;99.90
30399;DHT22;17195;50.838;7.214;2023-12-20T12:16:21;8.00;99.90
30399;DHT22;17195;50.838;7.214;2023-12-20T12:18:54;8.00;99.90
30399;DHT22;17195;50.838;7.214;2023-12-20T12:21:20;8.00;99.90
30399;DHT22;17195;50.838;7.214;2023-12-20T12:23:46;8.00;99.90
30399;DHT22;17195;50.838;7.214;2023-12-20T12:26:11;8.00;99.90
30399;DHT22;17195;50.838;7.214;2023-12-20T12:28:40;8.00;99.90
30399;DHT22;17195;50.838;7.214;2023-12-20T12:31:06;7.90;99.90
30399;DHT22;17195;50.838;7.214;2023-12-20T12:33:32;8.00;99.90
30399;DHT22;17195;50.838;7.214;2023-12-20T12:35:58;7.90;99.90
30399;DHT22;17195;50.838;7.214;2023-12-20T12:38:25;7.90;99.90
30399;DHT22;17195;50.838;7.214;2023-12-20T12:40:50;7.90;99.90
30399;DHT22;17195;50.838;7.214;2023-12-20T12:43:18;7.90;99.90
30399;DHT22;17195;50.838;7.214;2023-12-20T12:45:44;7.90;99.90
30399;DHT22;17195;50.838;7.214;2023-12-20T12:48:10;7.90;99.90
30399;DHT22;17195;50.838;7.214;2023-12-20T12:50:35;7.90;99.90
30399;DHT22;17195;50.838;7.214;2023-12-20T12:53:01;7.90;99.90
30399;DHT22;17195;50.838;7.214;2023-12-20T12:55:28;7.90;99.90
30399;DHT22;17195;50.838;7.214;2023-12-20T12:57:54;7.90;99.90
30399;DHT22;17195;50.838;7.214;2023-12-20T13:00:19;7.90;99.90
30399;DHT22;17195;50.838;7.214;2023-12-20T13:02:45;7.90;99.90
30399;DHT22;17195;50.838;7.214;2023-12-20T13:05:11;7.90;99.90
30399;DHT22;17195;50.838;7.214;2023-12-20T13:07:36;7.90;99.90
30399;DHT22;17195;50.838;7.214;2023-12-20T13:10:03;7.90;99.90
30399;DHT22;17195;50.838;7.214;2023-12-20T13:12:29;7.90;99.90
30399;DHT22;17195;50.838;7.214;2023-12-20T13:14:55;7.90;99.90
30399;DHT22;17195;50.838;7.214;2023-12-20T13:17:20;8.00;99.90
30399;DHT22;17195;50.838;7.214;2023-12-20T13:19:46;7.90;99.90
30399;DHT22;17195;50.838;7.214;2023-12-20T13:22:12;8.00;99.90
30399;DHT22;17195;50.838;7.214;2023-12-20T13:24:37;7.90;99.90
30399;DHT22;17195;50.838;7.214;2023-12-20T13:27:03;7.90;99.90
30399;DHT22;17195;50.838;7.214;2023-12-20T13:29:28;7.80;99.90
30399;DHT22;17195;50.838;7.214;2023-12-20T13:31:54;7.70;99.90
30399;DHT22;17195;50.838;7.214;2023-12-20T13:34:20;7.60;99.90
30399;DHT22;17195;50.838;7.214;2023-12-20T13:36:46;7.50;99.90
30399;DHT22;17195;50.838;7.214;2023-12-20T13:39:13;7.40;99.90
30399;DHT22;17195;50.838;7.214;2023-12-20T13:41:39;7.30;99.90
30399;DHT22;17195;50.838;7.214;2023-12-20T13:44:04;7.30;99.90
30399;DHT22;17195;50.838;7.214;2023-12-20T13:46:30;7.20;99.90
30399;DHT22;17195;50.838;7.214;2023-12-20T13:48:56;7.20;99.90
30399;DHT22;17195;50.838;7.214;2023-12-20T13:51:22;7.20;99.90
30399;DHT22;17195;50.838;7.214;2023-12-20T13:53:48;7.20;99.90
30399;DHT22;17195;50.838;7.214;2023-12-20T13:56:14;7.20;99.90
30399;DHT22;17195;50.838;7.214;2023-12-20T13:58:40;7.20;99.90
30399;DHT22;17195;50.838;7.214;2023-12-20T14:01:08;7.20;99.90
30399;DHT22;17195;50.838;7.214;2023-12-20T14:03:34;7.20;99.90
30399;DHT22;17195;50.838;7.214;2023-12-20T14:06:00;7.20;99.90
30399;DHT22;17195;50.838;7.214;2023-12-20T14:08:27;7.20;99.90
30399;DHT22;17195;50.838;7.214;2023-12-20T14:10:53;7.20;99.90
30399;DHT22;17195;50.838;7.214;2023-12-20T14:13:18;7.20;99.90
30399;DHT22;17195;50.838;7.214;2023-12-20T14:15:44;7.20;99.90
30399;DHT22;17195;50.838;7.214;2023-12-20T14:18:10;7.20;99.90
30399;DHT22;17195;50.838;7.214;2023-12-20T14:20:36;7.20;99.90
30399;DHT22;17195;50.838;7.214;2023-12-20T14:23:02;7.30;99.90
30399;DHT22;17195;50.838;7.214;2023-12-20T14:25:28;7.30;99.90
30399;DHT22;17195;50.838;7.214;2023-12-20T14:27:54;7.30;99.90
30399;DHT22;17195;50.838;7.214;2023-12-20T14:30:19;7.30;99.90
30399;DHT22;17195;50.838;7.214;2023-12-20T14:32:45;7.30;99.90
30399;DHT22;17195;50.838;7.214;2023-12-20T14:35:13;7.30;99.90
30399;DHT22;17195;50.838;7.214;2023-12-20T14:37:38;7.30;99.90
30399;DHT22;17195;50.838;7.214;2023-12-20T14:40:06;7.30;99.90
30399;DHT22;17195;50.838;7.214;2023-12-20T14:42:35;7.30;99.90
30399;DHT22;17195;50.838;7.214;2023-12-20T14:45:01;7.40;99.90
30399;DHT22;17195;50.838;7.214;2023-12-20T14:47:26;7.40;99.90
30399;DHT22;17195;50.838;7.214;2023-12-20T14:49:52;7.40;99.90
30399;DHT22;17195;50.838;7.214;2023-12-20T14:52:18;7.50;99.90
30399;DHT22;17195;50.838;7.214;2023-12-20T14:54:44;7.40;99.90
30399;DHT22;17195;50.838;7.214;2023-12-20T14:57:10;7.40;99.90
30399;DHT22;17195;50.838;7.214;2023-12-20T14:59:35;7.50;99.90
30399;DHT22;17195;50.838;7.214;2023-12-20T15:02:01;7.50;99.90
30399;DHT22;17195;50.838;7.214;2023-12-20T15:04:30;7.60;99.90
30399;DHT22;17195;50.838;7.214;2023-12-20T15:06:56;7.60;99.90
30399;DHT22;17195;50.838;7.214;2023-12-20T15:09:21;7.60;99.90
30399;DHT22;17195;50.838;7.214;2023-12-20T15:11:47;7.50;99.90
30399;DHT22;17195;50.838;7.214;2023-12-20T15:14:13;7.60;99.90
30399;DHT22;17195;50.838;7.214;2023-12-20T15:16:44;7.60;99.90
30399;DHT22;17195;50.838;7.214;2023-12-20T15:19:09;7.60;99.90
30399;DHT22;17195;50.838;7.214;2023-12-20T15:21:35;7.60;99.90
30399;DHT22;17195;50.838;7.214;2023-12-20T15:24:05;7.60;99.90
30399;DHT22;17195;50.838;7.214;2023-12-20T15:26:37;7.60;99.90
30399;DHT22;17195;50.838;7.214;2023-12-20T15:29:03;7.60;99.90
30399;DHT22;17195;50.838;7.214;2023-12-20T15:31:29;7.60;99.90
30399;DHT22;17195;50.838;7.214;2023-12-20T15:33:55;7.60;99.90
30399;DHT22;17195;50.838;7.214;2023-12-20T15:36:20;7.60;99.90
30399;DHT22;17195;50.838;7.214;2023-12-20T15:38:46;7.60;99.90
30399;DHT22;17195;50.838;7.214;2023-12-20T15:41:18;7.60;99.90
30399;DHT22;17195;50.838;7.214;2023-12-20T15:43:44;7.60;99.90